createdAt,value
2024-02-02T00:00:45.387Z,93.32
2024-02-02T00:03:12.328Z,93.54
2024-02-02T00:05:39.129Z,92.84
2024-02-02T00:08:08.167Z,92.71
2024-02-02T00:10:35.186Z,93.06
2024-02-02T00:13:01.890Z,92.22
2024-02-02T00:15:28.746Z,92.34
2024-02-02T00:17:55.539Z,91.92
2024-02-02T00:20:22.132Z,91.88
2024-02-02T00:22:49.030Z,92.49
2024-02-02T00:25:15.765Z,93.02
2024-02-02T00:27:42.965Z,93.26
2024-02-02T00:30:09.992Z,93.85
2024-02-02T00:32:36.515Z,93.88
2024-02-02T00:35:03.292Z,93.96
2024-02-02T00:37:29.919Z,94.39
2024-02-02T00:39:56.354Z,93.93
2024-02-02T00:42:22.891Z,93.77
2024-02-02T00:44:49.542Z,94.16
2024-02-02T00:47:16.418Z,93.70
2024-02-02T00:49:43.324Z,93.69
2024-02-02T00:52:09.889Z,92.98
2024-02-02T00:54:36.767Z,93.13
2024-02-02T00:57:03.925Z,93.15
2024-02-02T00:59:30.493Z,93.09
2024-02-02T01:01:57.006Z,91.97
2024-02-02T01:04:23.853Z,92.01
2024-02-02T01:06:50.795Z,92.90
2024-02-02T01:09:17.629Z,93.10
2024-02-02T01:11:44.657Z,93.45
2024-02-02T01:14:11.152Z,93.39
2024-02-02T01:16:37.629Z,93.02
2024-02-02T01:19:04.389Z,93.56
2024-02-02T01:21:31.823Z,93.44
2024-02-02T01:23:58.507Z,93.55
2024-02-02T01:26:25.205Z,93.91
2024-02-02T01:28:52.053Z,93.61
2024-02-02T01:31:18.657Z,93.54
2024-02-02T01:33:45.205Z,93.62
2024-02-02T01:36:12.325Z,93.41
2024-02-02T01:38:39.435Z,93.57
2024-02-02T01:41:06.099Z,93.33
2024-02-02T01:43:33.383Z,93.69
2024-02-02T01:45:59.997Z,92.75
2024-02-02T01:48:27.330Z,93.51
2024-02-02T01:50:54.931Z,93.84
2024-02-02T01:53:21.823Z,93.35
2024-02-02T01:55:48.408Z,93.79
2024-02-02T01:58:15.201Z,93.78
2024-02-02T02:00:41.791Z,93.25
2024-02-02T02:03:08.812Z,93.54
2024-02-02T02:05:37.074Z,93.65
2024-02-02T02:08:04.449Z,93.33
2024-02-02T02:10:30.944Z,93.75
2024-02-02T02:12:57.808Z,93.34
2024-02-02T02:15:25.703Z,93.71
2024-02-02T02:17:55.404Z,93.31
2024-02-02T02:20:24.128Z,93.56
2024-02-02T02:22:50.877Z,93.23
2024-02-02T02:25:17.418Z,93.39
2024-02-02T02:27:45.136Z,93.08
2024-02-02T02:30:12.771Z,93.05
2024-02-02T02:32:39.467Z,92.34
2024-02-02T02:35:06.428Z,91.95
2024-02-02T02:37:33.013Z,92.38
2024-02-02T02:39:59.868Z,92.64
2024-02-02T02:42:26.756Z,92.45
2024-02-02T02:44:53.654Z,92.54
2024-02-02T02:47:20.529Z,92.89
2024-02-02T02:49:47.232Z,92.55
2024-02-02T02:52:14.123Z,93.25
2024-02-02T02:54:40.583Z,93.18
2024-02-02T02:57:07.432Z,93.22
2024-02-02T02:59:36.504Z,92.27
2024-02-02T03:02:04.106Z,92.08
2024-02-02T03:04:30.909Z,91.68
2024-02-02T03:06:57.791Z,92.15
2024-02-02T03:09:24.822Z,92.36
2024-02-02T03:11:51.548Z,92.46
2024-02-02T03:14:18.492Z,91.75
2024-02-02T03:16:45.137Z,92.27
2024-02-02T03:19:11.751Z,92.46
2024-02-02T03:21:38.846Z,92.49
2024-02-02T03:24:06.589Z,92.28
2024-02-02T03:26:33.441Z,92.16
2024-02-02T03:29:00.018Z,92.10
2024-02-02T03:31:26.499Z,91.41
2024-02-02T03:33:53.145Z,91.41
2024-02-02T03:36:19.787Z,90.77
2024-02-02T03:38:46.495Z,90.50
2024-02-02T03:41:14.016Z,91.48
2024-02-02T03:43:40.668Z,90.54
2024-02-02T03:46:07.773Z,90.26
2024-02-02T03:48:34.452Z,91.07
2024-02-02T03:51:02.350Z,91.12
2024-02-02T03:53:29.120Z,91.36
2024-02-02T03:55:55.695Z,90.75
2024-02-02T03:58:22.664Z,91.41
2024-02-02T04:00:49.467Z,91.28
2024-02-02T04:03:16.756Z,91.53
2024-02-02T04:05:43.671Z,91.61
2024-02-02T04:08:11.348Z,91.64
2024-02-02T04:10:39.769Z,92.01
2024-02-02T04:13:06.359Z,91.64
2024-02-02T04:15:33.683Z,90.83
2024-02-02T04:18:01.086Z,91.31
2024-02-02T04:20:27.962Z,90.46
2024-02-02T04:22:54.595Z,90.57
2024-02-02T04:25:21.100Z,90.20
2024-02-02T04:27:47.721Z,90.79
2024-02-02T04:30:14.698Z,91.34
2024-02-02T04:32:41.947Z,91.17
2024-02-02T04:35:08.552Z,91.12
2024-02-02T04:37:35.200Z,90.85
2024-02-02T04:40:02.158Z,91.04
2024-02-02T04:42:29.302Z,90.13
2024-02-02T04:44:56.057Z,90.30
2024-02-02T04:47:23.897Z,89.86
2024-02-02T04:49:50.672Z,90.41
2024-02-02T04:52:17.322Z,91.00
2024-02-02T04:54:44.184Z,90.97
2024-02-02T04:57:11.197Z,90.58
2024-02-02T04:59:38.918Z,90.87
2024-02-02T05:02:06.657Z,90.73
2024-02-02T05:04:34.133Z,90.78
2024-02-02T05:07:01.045Z,90.89
2024-02-02T05:09:28.401Z,91.31
2024-02-02T05:11:55.500Z,90.73
2024-02-02T05:14:22.183Z,90.81
2024-02-02T05:16:48.786Z,90.77
2024-02-02T05:19:15.860Z,90.19
2024-02-02T05:21:42.707Z,90.92
2024-02-02T05:24:22.042Z,90.62
2024-02-02T05:26:56.585Z,90.78
2024-02-02T05:29:23.304Z,91.02
2024-02-02T05:31:49.920Z,90.09
2024-02-02T05:34:16.818Z,89.84
2024-02-02T05:36:43.984Z,89.84
2024-02-02T05:39:11.005Z,90.07
2024-02-02T05:41:37.886Z,90.76
2024-02-02T05:44:04.790Z,90.25
2024-02-02T05:46:31.389Z,90.53
2024-02-02T05:48:58.175Z,91.14
2024-02-02T05:51:24.947Z,90.89
2024-02-02T05:53:52.692Z,91.29
2024-02-02T05:56:19.848Z,91.13
2024-02-02T05:58:46.730Z,91.38
2024-02-02T06:01:13.539Z,91.56
2024-02-02T06:03:40.458Z,91.07
2024-02-02T06:06:07.721Z,90.04
2024-02-02T06:08:34.469Z,89.91
2024-02-02T06:11:01.060Z,90.53
2024-02-02T06:13:27.874Z,90.81
2024-02-02T06:15:56.036Z,91.20
2024-02-02T06:18:23.133Z,90.30
2024-02-02T06:20:49.908Z,89.78
2024-02-02T06:23:16.790Z,89.75
2024-02-02T06:25:43.901Z,90.44
2024-02-02T06:28:11.269Z,90.75
2024-02-02T06:30:38.342Z,89.80
2024-02-02T06:33:05.119Z,90.07
2024-02-02T06:35:32.022Z,89.82
2024-02-02T06:38:01.502Z,90.19
2024-02-02T06:40:28.602Z,89.36
2024-02-02T06:42:56.389Z,90.51
2024-02-02T06:45:23.855Z,90.69
2024-02-02T06:47:53.594Z,90.83
2024-02-02T06:50:20.333Z,90.96
2024-02-02T06:52:47.323Z,90.70
2024-02-02T06:55:15.506Z,90.49
2024-02-02T06:57:43.338Z,90.43
2024-02-02T07:00:13.218Z,90.51
2024-02-02T07:02:40.272Z,90.07
2024-02-02T07:05:07.887Z,90.02
2024-02-02T07:07:34.969Z,90.35
2024-02-02T07:10:02.502Z,91.31
2024-02-02T07:12:35.903Z,90.24
2024-02-02T07:15:05.617Z,90.90
2024-02-02T07:17:37.897Z,90.44
2024-02-02T07:20:10.331Z,90.08
2024-02-02T07:22:39.175Z,89.95
2024-02-02T07:25:07.869Z,90.05
2024-02-02T07:28:05.636Z,89.69
2024-02-02T07:30:32.608Z,90.17
2024-02-02T07:33:01.364Z,90.11
2024-02-02T07:35:33.138Z,90.47
2024-02-02T07:38:07.544Z,90.05
2024-02-02T07:41:06.508Z,89.93
2024-02-02T07:43:34.653Z,89.43
2024-02-02T07:46:02.816Z,89.79
2024-02-02T07:48:31.078Z,90.17
2024-02-02T07:50:57.990Z,90.63
2024-02-02T07:53:24.721Z,90.07
2024-02-02T07:55:51.979Z,89.28
2024-02-02T07:58:19.411Z,89.95
2024-02-02T08:00:46.232Z,89.33
2024-02-02T08:03:13.867Z,90.00
2024-02-02T08:05:43.227Z,89.73
2024-02-02T08:08:11.096Z,88.78
2024-02-02T08:10:43.212Z,88.94
2024-02-02T08:13:15.382Z,89.01
2024-02-02T08:15:42.446Z,88.99
2024-02-02T08:18:10.337Z,88.99
2024-02-02T08:20:37.921Z,88.73
2024-02-02T08:23:06.175Z,87.65
2024-02-02T08:25:32.920Z,88.20
2024-02-02T08:28:02.221Z,87.54
2024-02-02T08:30:29.546Z,88.58
2024-02-02T08:32:56.410Z,87.32
2024-02-02T08:35:25.109Z,87.98
2024-02-02T08:38:02.043Z,87.53
2024-02-02T08:40:45.038Z,88.26
2024-02-02T08:43:15.794Z,87.90
2024-02-02T08:45:42.552Z,87.28
2024-02-02T08:48:24.815Z,87.32
2024-02-02T08:50:51.680Z,86.60
2024-02-02T08:53:19.339Z,86.40
2024-02-02T08:55:50.620Z,86.38
2024-02-02T08:58:33.120Z,86.47
2024-02-02T09:01:00.764Z,84.07
2024-02-02T09:03:46.181Z,85.24
2024-02-02T09:06:42.890Z,85.78
2024-02-02T09:09:13.608Z,85.84
2024-02-02T09:11:40.712Z,86.32
2024-02-02T09:14:18.572Z,85.53
2024-02-02T09:16:51.689Z,85.51
2024-02-02T09:19:25.560Z,85.33
2024-02-02T09:21:53.772Z,84.96
2024-02-02T09:24:49.222Z,85.24
2024-02-02T09:27:33.383Z,84.86
2024-02-02T09:30:01.216Z,84.06
2024-02-02T09:32:28.964Z,83.96
2024-02-02T09:35:01.012Z,84.07
2024-02-02T09:37:44.336Z,83.58
2024-02-02T09:40:45.738Z,83.86
2024-02-02T09:43:30.675Z,83.24
2024-02-02T09:46:24.008Z,83.42
2024-02-02T09:49:29.361Z,83.82
2024-02-02T09:52:01.817Z,84.02
2024-02-02T09:54:40.896Z,84.63
2024-02-02T09:57:22.572Z,85.45
2024-02-02T10:00:02.897Z,84.72
2024-02-02T10:03:00.681Z,83.73
2024-02-02T10:05:41.196Z,83.14
2024-02-02T10:08:49.965Z,83.25
2024-02-02T10:11:17.013Z,81.97
2024-02-02T10:14:13.320Z,82.30
2024-02-02T10:16:49.639Z,80.60
2024-02-02T10:19:25.611Z,79.87
2024-02-02T10:22:16.560Z,80.11
2024-02-02T10:25:01.475Z,81.05
2024-02-02T10:27:47.014Z,80.18
2024-02-02T10:30:44.353Z,79.08
2024-02-02T10:33:35.998Z,78.57
2024-02-02T10:36:23.143Z,77.60
2024-02-02T10:39:14.830Z,76.88
2024-02-02T10:42:00.546Z,78.80
2024-02-02T10:44:58.477Z,76.59
2024-02-02T10:47:43.020Z,75.44
2024-02-02T10:50:23.781Z,74.05
2024-02-02T10:53:03.246Z,70.96
2024-02-02T10:55:58.808Z,66.33
2024-02-02T10:58:43.718Z,62.37
2024-02-02T11:01:31.420Z,64.56
2024-02-02T11:04:16.317Z,65.71
2024-02-02T11:06:52.344Z,66.16
2024-02-02T11:09:48.621Z,67.21
2024-02-02T11:12:48.297Z,64.61
2024-02-02T11:15:28.647Z,63.77
2024-02-02T11:18:08.804Z,65.04
2024-02-02T11:21:11.312Z,66.08
2024-02-02T11:23:52.994Z,64.22
2024-02-02T11:26:46.110Z,66.61
2024-02-02T11:29:28.463Z,65.86
2024-02-02T11:32:10.823Z,67.75
2024-02-02T11:34:47.374Z,67.53
2024-02-02T11:37:46.177Z,67.34
2024-02-02T11:40:14.501Z,65.22
2024-02-02T11:42:41.857Z,62.21
2024-02-02T11:45:13.497Z,63.25
2024-02-02T11:47:51.400Z,63.47
2024-02-02T11:50:21.754Z,62.54
2024-02-02T11:53:09.357Z,63.86
2024-02-02T11:55:42.196Z,63.82
2024-02-02T11:58:12.778Z,62.90
2024-02-02T12:00:54.128Z,62.32
2024-02-02T12:03:42.643Z,62.64
2024-02-02T12:06:16.634Z,59.17
2024-02-02T12:09:19.020Z,55.40
2024-02-02T12:11:53.203Z,55.39
2024-02-02T12:14:27.096Z,57.28
2024-02-02T12:16:55.046Z,56.38
2024-02-02T12:19:22.497Z,55.50
2024-02-02T12:21:49.299Z,57.50
2024-02-02T12:24:18.484Z,58.42
2024-02-02T12:26:49.128Z,55.89
2024-02-02T12:29:16.901Z,57.14
2024-02-02T12:31:43.872Z,53.92
2024-02-02T12:34:10.987Z,55.73
2024-02-02T12:36:38.020Z,52.73
2024-02-02T12:39:09.288Z,53.57
2024-02-02T12:41:36.368Z,52.75
2024-02-02T12:44:03.674Z,53.66
2024-02-02T12:46:30.557Z,53.33
2024-02-02T12:48:57.452Z,53.35
2024-02-02T12:51:24.852Z,53.34
2024-02-02T12:53:51.832Z,53.98
2024-02-02T12:56:19.301Z,55.33
2024-02-02T12:58:46.051Z,55.34
2024-02-02T13:01:15.100Z,56.03
2024-02-02T13:03:44.826Z,57.56
2024-02-02T13:06:13.414Z,57.29
2024-02-02T13:08:42.474Z,57.39
2024-02-02T13:11:21.105Z,56.83
2024-02-02T13:13:48.282Z,57.27
2024-02-02T13:16:36.485Z,56.70
2024-02-02T13:19:08.799Z,55.03
2024-02-02T13:21:44.075Z,56.57
2024-02-02T13:24:20.312Z,56.05
2024-02-02T13:26:52.694Z,56.73
2024-02-02T13:29:27.035Z,55.72
2024-02-02T13:31:53.977Z,56.49
2024-02-02T13:34:21.446Z,56.46
2024-02-02T13:36:49.960Z,54.74
2024-02-02T13:39:22.834Z,57.00
2024-02-02T13:41:51.916Z,56.72
2024-02-02T13:44:24.241Z,55.29
2024-02-02T13:46:51.125Z,55.00
2024-02-02T13:49:24.702Z,56.46
2024-02-02T13:51:53.130Z,56.66
2024-02-02T13:54:21.358Z,55.83
2024-02-02T13:56:48.234Z,55.75
2024-02-02T13:59:19.368Z,56.90
2024-02-02T14:01:47.473Z,55.07
2024-02-02T14:04:15.270Z,56.18
2024-02-02T14:06:42.071Z,57.45
2024-02-02T14:09:09.923Z,56.39
2024-02-02T14:11:39.042Z,55.36
2024-02-02T14:14:06.991Z,56.04
2024-02-02T14:16:34.108Z,56.87
2024-02-02T14:19:06.229Z,54.04
2024-02-02T14:21:38.202Z,54.86
2024-02-02T14:24:13.464Z,52.87
2024-02-02T14:26:54.623Z,55.08
2024-02-02T14:29:23.527Z,53.86
2024-02-02T14:31:59.316Z,53.59
2024-02-02T14:34:28.727Z,53.70
2024-02-02T14:36:56.735Z,53.79
2024-02-02T14:39:27.821Z,55.00
2024-02-02T14:41:55.707Z,55.08
2024-02-02T14:44:23.853Z,56.01
2024-02-02T14:46:51.041Z,56.48
2024-02-02T14:49:18.966Z,54.58
2024-02-02T14:51:45.810Z,54.72
2024-02-02T14:54:12.566Z,53.23
2024-02-02T14:56:39.494Z,52.80
2024-02-02T14:59:09.628Z,52.85
2024-02-02T15:01:37.784Z,52.65
2024-02-02T15:04:06.016Z,53.12
2024-02-02T15:06:35.601Z,55.08
2024-02-02T15:09:10.782Z,53.30
2024-02-02T15:11:38.147Z,53.13
2024-02-02T15:14:05.265Z,52.68
2024-02-02T15:16:32.543Z,54.58
2024-02-02T15:18:59.599Z,53.41
2024-02-02T15:21:26.942Z,54.53
2024-02-02T15:23:53.795Z,55.53
2024-02-02T15:26:20.915Z,54.51
2024-02-02T15:28:47.677Z,53.88
2024-02-02T15:31:14.389Z,54.00
2024-02-02T15:33:42.075Z,54.67
2024-02-02T15:36:09.640Z,54.93
2024-02-02T15:38:37.398Z,53.94
2024-02-02T15:41:12.530Z,53.73
2024-02-02T15:43:39.317Z,54.82
2024-02-02T15:46:06.546Z,55.39
2024-02-02T15:48:34.003Z,55.22
2024-02-02T15:51:00.994Z,55.03
2024-02-02T15:53:29.113Z,54.83
2024-02-02T15:55:55.935Z,54.78
2024-02-02T15:58:22.724Z,55.50
2024-02-02T16:00:49.752Z,55.95
2024-02-02T16:03:17.379Z,56.57
2024-02-02T16:05:45.014Z,56.29
2024-02-02T16:08:13.272Z,58.49
2024-02-02T16:10:39.999Z,58.35
2024-02-02T16:13:06.490Z,57.83
2024-02-02T16:15:33.481Z,56.92
2024-02-02T16:18:00.659Z,56.57
2024-02-02T16:20:27.398Z,56.33
2024-02-02T16:22:53.937Z,57.55
2024-02-02T16:25:20.592Z,59.04
2024-02-02T16:27:47.542Z,56.29
2024-02-02T16:30:15.595Z,55.31
2024-02-02T16:32:42.277Z,56.32
2024-02-02T16:35:09.628Z,54.77
2024-02-02T16:37:40.838Z,55.15
2024-02-02T16:40:09.150Z,53.88
2024-02-02T16:42:37.882Z,53.29
2024-02-02T16:45:05.219Z,53.97
2024-02-02T16:47:32.122Z,53.83
2024-02-02T16:49:59.182Z,53.71
2024-02-02T16:52:26.092Z,54.41
2024-02-02T16:54:53.085Z,54.92
2024-02-02T16:57:19.826Z,53.95
2024-02-02T16:59:46.775Z,54.55
2024-02-02T17:02:13.502Z,52.89
2024-02-02T17:04:43.297Z,52.10
2024-02-02T17:07:10.466Z,49.86
2024-02-02T17:09:40.168Z,50.70
2024-02-02T17:12:10.499Z,50.58
2024-02-02T17:14:39.868Z,51.71
2024-02-02T17:17:07.292Z,51.87
2024-02-02T17:19:34.076Z,53.08
2024-02-02T17:22:00.885Z,52.69
2024-02-02T17:24:27.799Z,50.64
2024-02-02T17:26:54.961Z,51.14
2024-02-02T17:29:21.815Z,50.70
2024-02-02T17:31:48.587Z,50.06
2024-02-02T17:34:17.009Z,50.51
2024-02-02T17:36:44.125Z,50.61
2024-02-02T17:39:10.936Z,51.95
2024-02-02T17:41:37.585Z,51.61
2024-02-02T17:44:04.658Z,52.21
2024-02-02T17:46:31.319Z,52.86
2024-02-02T17:48:58.457Z,52.73
2024-02-02T17:51:25.425Z,52.77
2024-02-02T17:53:52.648Z,50.99
2024-02-02T17:56:19.147Z,51.38
2024-02-02T17:58:48.219Z,51.10
2024-02-02T18:01:16.793Z,51.65
2024-02-02T18:03:44.165Z,51.51
2024-02-02T18:06:11.192Z,52.39
2024-02-02T18:08:38.252Z,53.88
2024-02-02T18:11:07.450Z,54.94
2024-02-02T18:13:34.301Z,55.00
2024-02-02T18:16:01.037Z,56.22
2024-02-02T18:18:27.760Z,55.94
2024-02-02T18:20:54.647Z,56.70
2024-02-02T18:23:21.597Z,57.23
2024-02-02T18:25:48.209Z,55.81
2024-02-02T18:28:16.520Z,57.77
2024-02-02T18:30:43.906Z,58.16
2024-02-02T18:33:11.741Z,60.12
2024-02-02T18:35:38.652Z,59.83
2024-02-02T18:38:06.061Z,59.52
2024-02-02T18:40:32.892Z,58.99
2024-02-02T18:42:59.851Z,59.50
2024-02-02T18:45:26.969Z,59.75
2024-02-02T18:47:54.033Z,60.06
2024-02-02T18:50:20.762Z,59.35
2024-02-02T18:52:48.781Z,58.53
2024-02-02T18:55:15.769Z,60.02
2024-02-02T18:57:42.560Z,60.91
2024-02-02T19:00:10.609Z,61.14
2024-02-02T19:02:37.649Z,61.91
2024-02-02T19:05:04.992Z,63.11
2024-02-02T19:07:34.270Z,62.63
2024-02-02T19:10:01.333Z,62.46
2024-02-02T19:12:30.661Z,61.56
2024-02-02T19:14:59.812Z,63.47
2024-02-02T19:17:26.932Z,64.16
2024-02-02T19:19:53.847Z,64.45
2024-02-02T19:22:20.555Z,64.33
2024-02-02T19:24:47.694Z,64.56
2024-02-02T19:27:14.551Z,64.04
2024-02-02T19:29:41.227Z,63.06
2024-02-02T19:32:08.411Z,64.07
2024-02-02T19:34:35.703Z,64.66
2024-02-02T19:37:02.693Z,64.58
2024-02-02T19:39:29.639Z,62.91
2024-02-02T19:41:56.469Z,62.34
2024-02-02T19:44:23.321Z,61.68
2024-02-02T19:46:51.468Z,59.71
2024-02-02T19:49:18.244Z,58.04
2024-02-02T19:51:45.252Z,59.16
2024-02-02T19:54:12.277Z,60.12
2024-02-02T19:56:39.155Z,60.17
2024-02-02T19:59:05.806Z,62.13
2024-02-02T20:01:33.400Z,62.44
2024-02-02T20:04:00.382Z,62.78
2024-02-02T20:06:27.105Z,64.12
2024-02-02T20:08:53.964Z,65.30
2024-02-02T20:11:22.238Z,64.02
2024-02-02T20:13:49.861Z,63.10
2024-02-02T20:16:18.584Z,64.37
2024-02-02T20:18:45.800Z,65.45
2024-02-02T20:21:14.938Z,65.84
2024-02-02T20:23:42.349Z,62.66
2024-02-02T20:26:09.635Z,63.31
2024-02-02T20:28:36.741Z,64.27
2024-02-02T20:31:04.492Z,62.65
2024-02-02T20:33:31.450Z,64.07
2024-02-02T20:35:58.176Z,65.42
2024-02-02T20:38:24.857Z,65.28
2024-02-02T20:40:51.680Z,64.64
2024-02-02T20:43:18.409Z,62.53
2024-02-02T20:45:45.485Z,62.90
2024-02-02T20:48:12.658Z,59.89
2024-02-02T20:50:39.543Z,61.17
2024-02-02T20:53:06.292Z,61.99
2024-02-02T20:55:33.225Z,59.65
2024-02-02T20:58:02.662Z,60.98
2024-02-02T21:00:30.989Z,61.74
2024-02-02T21:02:57.866Z,61.12
2024-02-02T21:05:25.641Z,60.66
2024-02-02T21:07:53.449Z,62.28
2024-02-02T21:10:20.671Z,62.33
2024-02-02T21:12:47.844Z,63.61
2024-02-02T21:15:17.478Z,63.71
2024-02-02T21:17:48.502Z,62.40
2024-02-02T21:20:15.450Z,62.39
2024-02-02T21:22:42.273Z,62.16
2024-02-02T21:25:10.424Z,62.45
2024-02-02T21:27:37.233Z,63.23
2024-02-02T21:30:04.911Z,62.30
2024-02-02T21:32:31.863Z,62.90
2024-02-02T21:34:58.837Z,63.81
2024-02-02T21:37:25.361Z,61.15
2024-02-02T21:39:51.928Z,63.42
2024-02-02T21:42:18.601Z,63.37
2024-02-02T21:44:45.477Z,62.44
2024-02-02T21:47:12.533Z,61.58
2024-02-02T21:49:42.511Z,61.91
2024-02-02T21:52:10.861Z,62.60
2024-02-02T21:54:37.497Z,62.49
2024-02-02T21:57:04.572Z,62.29
2024-02-02T21:59:31.137Z,62.56
2024-02-02T22:01:57.970Z,63.48
2024-02-02T22:04:24.424Z,63.63
2024-02-02T22:06:53.128Z,64.40
2024-02-02T22:09:20.020Z,64.38
2024-02-02T22:11:46.801Z,64.45
2024-02-02T22:14:13.309Z,64.64
2024-02-02T22:16:39.849Z,65.66
2024-02-02T22:19:06.439Z,65.65
2024-02-02T22:21:33.618Z,66.29
2024-02-02T22:24:00.752Z,66.75
2024-02-02T22:26:27.242Z,66.67
2024-02-02T22:28:54.254Z,67.34
2024-02-02T22:31:22.215Z,67.88
2024-02-02T22:33:50.457Z,68.61
2024-02-02T22:36:22.113Z,68.53
2024-02-02T22:38:51.137Z,68.04
2024-02-02T22:41:32.980Z,68.57
2024-02-02T22:44:01.484Z,70.03
2024-02-02T22:46:31.196Z,70.61
2024-02-02T22:48:58.289Z,70.75
2024-02-02T22:51:24.992Z,70.91
2024-02-02T22:53:51.831Z,70.85
2024-02-02T22:56:18.461Z,71.47
2024-02-02T22:58:45.097Z,72.06
2024-02-02T23:01:12.472Z,71.57
2024-02-02T23:03:39.275Z,71.53
2024-02-02T23:06:06.333Z,70.37
2024-02-02T23:08:33.515Z,69.29
2024-02-02T23:11:00.254Z,69.23
2024-02-02T23:13:27.030Z,70.43
2024-02-02T23:15:55.006Z,72.64
2024-02-02T23:18:22.799Z,74.47
2024-02-02T23:20:50.035Z,74.61
2024-02-02T23:23:20.231Z,74.64
2024-02-02T23:25:46.858Z,74.16
2024-02-02T23:28:13.762Z,75.49
2024-02-02T23:30:40.519Z,75.89
2024-02-02T23:33:07.553Z,75.35
2024-02-02T23:35:34.261Z,75.44
2024-02-02T23:38:00.803Z,75.35
2024-02-02T23:40:27.699Z,76.31
2024-02-02T23:42:54.638Z,75.80
2024-02-02T23:45:21.621Z,75.48
2024-02-02T23:47:48.374Z,74.51
2024-02-02T23:50:15.539Z,74.20
2024-02-02T23:52:42.288Z,73.14
2024-02-02T23:55:10.627Z,73.37
2024-02-02T23:57:38.117Z,74.13
